sensor_id;sensor_type;location;lat;lon;timestamp;P1;durP1;ratioP1;P2;durP2;ratioP2
84757;SDS011;74981;52.476;16.656;2024-02-21T00:00:41;15.90;;;4.90;;
84757;SDS011;74981;52.476;16.656;2024-02-21T00:06:04;12.00;;;3.30;;
84757;SDS011;74981;52.476;16.656;2024-02-21T00:11:07;11.50;;;3.30;;
84757;SDS011;74981;52.476;16.656;2024-02-21T00:16:09;13.20;;;3.40;;
84757;SDS011;74981;52.476;16.656;2024-02-21T00:21:12;11.50;;;3.10;;
84757;SDS011;74981;52.476;16.656;2024-02-21T00:26:15;13.60;;;4.70;;
84757;SDS011;74981;52.476;16.656;2024-02-21T00:31:18;12.60;;;5.40;;
84757;SDS011;74981;52.476;16.656;2024-02-21T00:36:20;16.30;;;4.80;;
84757;SDS011;74981;52.476;16.656;2024-02-21T00:41:22;18.20;;;6.00;;
84757;SDS011;74981;52.476;16.656;2024-02-21T00:46:25;14.90;;;6.60;;
84757;SDS011;74981;52.476;16.656;2024-02-21T00:51:27;17.90;;;5.70;;
84757;SDS011;74981;52.476;16.656;2024-02-21T00:56:30;10.90;;;5.30;;
84757;SDS011;74981;52.476;16.656;2024-02-21T01:01:32;17.50;;;4.40;;
84757;SDS011;74981;52.476;16.656;2024-02-21T01:06:34;20.00;;;5.40;;
84757;SDS011;74981;52.476;16.656;2024-02-21T01:11:37;20.10;;;5.00;;
84757;SDS011;74981;52.476;16.656;2024-02-21T01:16:39;14.50;;;3.90;;
84757;SDS011;74981;52.476;16.656;2024-02-21T01:21:42;17.80;;;5.60;;
84757;SDS011;74981;52.476;16.656;2024-02-21T01:26:44;12.60;;;3.90;;
84757;SDS011;74981;52.476;16.656;2024-02-21T01:31:47;12.90;;;3.70;;
84757;SDS011;74981;52.476;16.656;2024-02-21T01:36:49;18.40;;;4.30;;
84757;SDS011;74981;52.476;16.656;2024-02-21T01:41:51;11.80;;;4.00;;
84757;SDS011;74981;52.476;16.656;2024-02-21T01:46:54;15.50;;;6.30;;
84757;SDS011;74981;52.476;16.656;2024-02-21T01:51:57;14.70;;;4.50;;
84757;SDS011;74981;52.476;16.656;2024-02-21T01:56:59;14.30;;;4.00;;
84757;SDS011;74981;52.476;16.656;2024-02-21T02:02:02;18.70;;;4.30;;
84757;SDS011;74981;52.476;16.656;2024-02-21T02:07:05;14.80;;;5.00;;
84757;SDS011;74981;52.476;16.656;2024-02-21T02:12:09;17.80;;;5.90;;
84757;SDS011;74981;52.476;16.656;2024-02-21T02:17:11;17.70;;;4.30;;
84757;SDS011;74981;52.476;16.656;2024-02-21T02:22:15;16.10;;;5.40;;
84757;SDS011;74981;52.476;16.656;2024-02-21T02:27:44;19.10;;;5.00;;
84757;SDS011;74981;52.476;16.656;2024-02-21T02:32:47;19.10;;;6.30;;
84757;SDS011;74981;52.476;16.656;2024-02-21T02:37:49;13.20;;;4.10;;
84757;SDS011;74981;52.476;16.656;2024-02-21T02:42:52;18.30;;;4.00;;
84757;SDS011;74981;52.476;16.656;2024-02-21T02:47:54;17.30;;;5.20;;
84757;SDS011;74981;52.476;16.656;2024-02-21T02:52:57;16.90;;;5.20;;
84757;SDS011;74981;52.476;16.656;2024-02-21T02:58:00;9.50;;;4.90;;
84757;SDS011;74981;52.476;16.656;2024-02-21T03:03:02;13.80;;;7.00;;
84757;SDS011;74981;52.476;16.656;2024-02-21T03:08:06;15.60;;;6.60;;
84757;SDS011;74981;52.476;16.656;2024-02-21T03:13:08;18.20;;;6.00;;
84757;SDS011;74981;52.476;16.656;2024-02-21T03:18:11;16.70;;;5.20;;
84757;SDS011;74981;52.476;16.656;2024-02-21T03:23:13;15.80;;;5.00;;
84757;SDS011;74981;52.476;16.656;2024-02-21T03:28:16;17.50;;;6.00;;
84757;SDS011;74981;52.476;16.656;2024-02-21T03:33:19;17.80;;;7.10;;
84757;SDS011;74981;52.476;16.656;2024-02-21T03:38:21;18.20;;;5.50;;
84757;SDS011;74981;52.476;16.656;2024-02-21T03:43:24;16.40;;;5.40;;
84757;SDS011;74981;52.476;16.656;2024-02-21T03:48:26;16.50;;;6.20;;
84757;SDS011;74981;52.476;16.656;2024-02-21T03:53:29;15.30;;;7.70;;
84757;SDS011;74981;52.476;16.656;2024-02-21T03:58:31;21.10;;;7.50;;
84757;SDS011;74981;52.476;16.656;2024-02-21T04:03:34;15.00;;;5.60;;
84757;SDS011;74981;52.476;16.656;2024-02-21T04:08:36;18.40;;;5.40;;
84757;SDS011;74981;52.476;16.656;2024-02-21T04:13:40;13.60;;;4.70;;
84757;SDS011;74981;52.476;16.656;2024-02-21T04:18:42;18.80;;;4.80;;
84757;SDS011;74981;52.476;16.656;2024-02-21T04:23:45;21.40;;;4.30;;
84757;SDS011;74981;52.476;16.656;2024-02-21T04:28:47;16.70;;;5.40;;
84757;SDS011;74981;52.476;16.656;2024-02-21T04:33:50;12.40;;;4.00;;
84757;SDS011;74981;52.476;16.656;2024-02-21T04:38:52;18.60;;;4.70;;
84757;SDS011;74981;52.476;16.656;2024-02-21T04:43:55;13.60;;;4.60;;
84757;SDS011;74981;52.476;16.656;2024-02-21T04:48:57;15.10;;;4.40;;
84757;SDS011;74981;52.476;16.656;2024-02-21T04:53:59;14.00;;;4.90;;
84757;SDS011;74981;52.476;16.656;2024-02-21T04:59:01;13.80;;;4.90;;
84757;SDS011;74981;52.476;16.656;2024-02-21T05:04:04;16.60;;;5.00;;
84757;SDS011;74981;52.476;16.656;2024-02-21T05:09:07;13.40;;;3.80;;
84757;SDS011;74981;52.476;16.656;2024-02-21T05:14:10;14.30;;;5.50;;
84757;SDS011;74981;52.476;16.656;2024-02-21T05:19:12;12.60;;;5.00;;
84757;SDS011;74981;52.476;16.656;2024-02-21T05:24:14;14.60;;;5.60;;
84757;SDS011;74981;52.476;16.656;2024-02-21T05:29:16;14.00;;;4.10;;
84757;SDS011;74981;52.476;16.656;2024-02-21T05:34:19;16.90;;;6.50;;
84757;SDS011;74981;52.476;16.656;2024-02-21T05:39:23;16.40;;;6.70;;
84757;SDS011;74981;52.476;16.656;2024-02-21T05:44:26;11.50;;;4.20;;
84757;SDS011;74981;52.476;16.656;2024-02-21T05:49:28;9.80;;;3.70;;
84757;SDS011;74981;52.476;16.656;2024-02-21T05:54:31;15.40;;;5.30;;
84757;SDS011;74981;52.476;16.656;2024-02-21T05:59:33;12.60;;;3.90;;
84757;SDS011;74981;52.476;16.656;2024-02-21T06:04:35;19.20;;;6.10;;
84757;SDS011;74981;52.476;16.656;2024-02-21T06:09:38;18.60;;;4.20;;
84757;SDS011;74981;52.476;16.656;2024-02-21T06:14:40;15.60;;;4.10;;
84757;SDS011;74981;52.476;16.656;2024-02-21T06:19:43;14.10;;;5.30;;
84757;SDS011;74981;52.476;16.656;2024-02-21T06:24:45;15.10;;;6.60;;
84757;SDS011;74981;52.476;16.656;2024-02-21T06:29:47;10.60;;;5.60;;
84757;SDS011;74981;52.476;16.656;2024-02-21T06:34:50;15.30;;;4.20;;
84757;SDS011;74981;52.476;16.656;2024-02-21T06:39:52;14.10;;;4.40;;
84757;SDS011;74981;52.476;16.656;2024-02-21T06:44:55;12.30;;;4.50;;
84757;SDS011;74981;52.476;16.656;2024-02-21T06:49:57;16.30;;;4.70;;
84757;SDS011;74981;52.476;16.656;2024-02-21T06:55:00;11.60;;;4.50;;
84757;SDS011;74981;52.476;16.656;2024-02-21T07:00:03;10.70;;;4.50;;
84757;SDS011;74981;52.476;16.656;2024-02-21T07:05:07;9.90;;;5.60;;
84757;SDS011;74981;52.476;16.656;2024-02-21T07:10:10;11.90;;;4.80;;
84757;SDS011;74981;52.476;16.656;2024-02-21T07:15:12;13.80;;;5.30;;
84757;SDS011;74981;52.476;16.656;2024-02-21T07:20:15;14.70;;;5.10;;
84757;SDS011;74981;52.476;16.656;2024-02-21T07:25:17;14.00;;;3.80;;
84757;SDS011;74981;52.476;16.656;2024-02-21T07:30:20;11.20;;;4.10;;
84757;SDS011;74981;52.476;16.656;2024-02-21T07:35:22;12.80;;;4.30;;
84757;SDS011;74981;52.476;16.656;2024-02-21T07:40:24;14.80;;;4.50;;
84757;SDS011;74981;52.476;16.656;2024-02-21T07:45:27;14.10;;;5.30;;
84757;SDS011;74981;52.476;16.656;2024-02-21T07:50:29;13.40;;;5.70;;
84757;SDS011;74981;52.476;16.656;2024-02-21T07:55:32;15.00;;;5.30;;
84757;SDS011;74981;52.476;16.656;2024-02-21T08:00:34;14.40;;;5.50;;
84757;SDS011;74981;52.476;16.656;2024-02-21T08:05:37;11.20;;;4.40;;
84757;SDS011;74981;52.476;16.656;2024-02-21T08:10:39;19.70;;;5.40;;
84757;SDS011;74981;52.476;16.656;2024-02-21T08:15:42;15.20;;;7.60;;
84757;SDS011;74981;52.476;16.656;2024-02-21T08:20:44;8.50;;;4.10;;
84757;SDS011;74981;52.476;16.656;2024-02-21T08:25:47;11.70;;;4.20;;
84757;SDS011;74981;52.476;16.656;2024-02-21T08:30:49;14.40;;;5.30;;
84757;SDS011;74981;52.476;16.656;2024-02-21T08:35:52;12.50;;;5.30;;
84757;SDS011;74981;52.476;16.656;2024-02-21T08:40:54;14.20;;;5.10;;
84757;SDS011;74981;52.476;16.656;2024-02-21T08:45:57;13.00;;;4.60;;
84757;SDS011;74981;52.476;16.656;2024-02-21T08:50:59;13.10;;;5.80;;
84757;SDS011;74981;52.476;16.656;2024-02-21T08:56:02;13.20;;;5.50;;
84757;SDS011;74981;52.476;16.656;2024-02-21T09:01:05;20.10;;;5.40;;
84757;SDS011;74981;52.476;16.656;2024-02-21T09:06:09;10.50;;;4.20;;
84757;SDS011;74981;52.476;16.656;2024-02-21T09:11:15;16.10;;;5.00;;
84757;SDS011;74981;52.476;16.656;2024-02-21T09:16:17;13.20;;;5.00;;
84757;SDS011;74981;52.476;16.656;2024-02-21T09:21:20;13.80;;;6.10;;
84757;SDS011;74981;52.476;16.656;2024-02-21T09:26:22;15.10;;;6.20;;
84757;SDS011;74981;52.476;16.656;2024-02-21T09:31:24;13.80;;;6.20;;
84757;SDS011;74981;52.476;16.656;2024-02-21T09:36:27;14.70;;;4.60;;
84757;SDS011;74981;52.476;16.656;2024-02-21T09:41:29;13.10;;;5.30;;
84757;SDS011;74981;52.476;16.656;2024-02-21T09:46:35;9.80;;;4.00;;
84757;SDS011;74981;52.476;16.656;2024-02-21T09:51:45;9.60;;;8.10;;
84757;SDS011;74981;52.476;16.656;2024-02-21T09:56:51;13.20;;;5.50;;
84757;SDS011;74981;52.476;16.656;2024-02-21T10:01:53;13.10;;;5.50;;
84757;SDS011;74981;52.476;16.656;2024-02-21T10:06:55;11.40;;;4.50;;
84757;SDS011;74981;52.476;16.656;2024-02-21T10:12:07;12.90;;;6.20;;
84757;SDS011;74981;52.476;16.656;2024-02-21T10:17:15;14.40;;;6.00;;
84757;SDS011;74981;52.476;16.656;2024-02-21T10:22:19;13.90;;;5.20;;
84757;SDS011;74981;52.476;16.656;2024-02-21T10:27:23;16.70;;;5.40;;
84757;SDS011;74981;52.476;16.656;2024-02-21T10:32:25;12.90;;;5.00;;
84757;SDS011;74981;52.476;16.656;2024-02-21T10:37:28;8.60;;;4.00;;
84757;SDS011;74981;52.476;16.656;2024-02-21T10:42:30;9.70;;;4.40;;
84757;SDS011;74981;52.476;16.656;2024-02-21T10:47:35;14.60;;;5.20;;
84757;SDS011;74981;52.476;16.656;2024-02-21T10:52:43;13.90;;;4.50;;
84757;SDS011;74981;52.476;16.656;2024-02-21T10:57:50;13.60;;;7.70;;
84757;SDS011;74981;52.476;16.656;2024-02-21T11:02:52;10.60;;;5.10;;
84757;SDS011;74981;52.476;16.656;2024-02-21T11:07:55;12.80;;;5.10;;
84757;SDS011;74981;52.476;16.656;2024-02-21T11:13:05;11.50;;;5.10;;
84757;SDS011;74981;52.476;16.656;2024-02-21T11:18:08;11.30;;;4.20;;
84757;SDS011;74981;52.476;16.656;2024-02-21T11:23:11;12.40;;;4.10;;
84757;SDS011;74981;52.476;16.656;2024-02-21T11:28:13;14.90;;;5.40;;
84757;SDS011;74981;52.476;16.656;2024-02-21T11:33:26;14.70;;;5.30;;
84757;SDS011;74981;52.476;16.656;2024-02-21T11:38:28;13.10;;;5.20;;
84757;SDS011;74981;52.476;16.656;2024-02-21T11:43:32;14.50;;;6.80;;
84757;SDS011;74981;52.476;16.656;2024-02-21T11:48:34;17.70;;;6.90;;
84757;SDS011;74981;52.476;16.656;2024-02-21T11:53:37;13.50;;;4.90;;
84757;SDS011;74981;52.476;16.656;2024-02-21T11:58:39;14.50;;;5.60;;
84757;SDS011;74981;52.476;16.656;2024-02-21T12:03:42;10.40;;;5.30;;
84757;SDS011;74981;52.476;16.656;2024-02-21T12:08:44;20.30;;;6.10;;
84757;SDS011;74981;52.476;16.656;2024-02-21T12:13:47;16.50;;;7.60;;
84757;SDS011;74981;52.476;16.656;2024-02-21T12:19:10;14.80;;;5.10;;
84757;SDS011;74981;52.476;16.656;2024-02-21T12:24:14;14.20;;;5.80;;
84757;SDS011;74981;52.476;16.656;2024-02-21T12:34:23;18.60;;;8.60;;
84757;SDS011;74981;52.476;16.656;2024-02-21T12:39:26;12.50;;;6.40;;
84757;SDS011;74981;52.476;16.656;2024-02-21T12:44:28;14.10;;;5.80;;
84757;SDS011;74981;52.476;16.656;2024-02-21T12:49:30;24.80;;;8.00;;
84757;SDS011;74981;52.476;16.656;2024-02-21T12:54:33;16.70;;;7.10;;
84757;SDS011;74981;52.476;16.656;2024-02-21T12:59:35;13.80;;;7.60;;
84757;SDS011;74981;52.476;16.656;2024-02-21T13:04:37;12.60;;;5.40;;
84757;SDS011;74981;52.476;16.656;2024-02-21T13:09:40;15.70;;;6.30;;
84757;SDS011;74981;52.476;16.656;2024-02-21T13:14:42;15.10;;;5.20;;
84757;SDS011;74981;52.476;16.656;2024-02-21T13:19:44;12.00;;;6.20;;
84757;SDS011;74981;52.476;16.656;2024-02-21T13:24:47;12.90;;;5.20;;
84757;SDS011;74981;52.476;16.656;2024-02-21T13:29:49;13.00;;;4.80;;
84757;SDS011;74981;52.476;16.656;2024-02-21T13:34:51;18.40;;;6.40;;
84757;SDS011;74981;52.476;16.656;2024-02-21T13:39:54;13.70;;;6.30;;
84757;SDS011;74981;52.476;16.656;2024-02-21T13:44:56;12.30;;;5.30;;
84757;SDS011;74981;52.476;16.656;2024-02-21T13:49:59;14.20;;;4.50;;
84757;SDS011;74981;52.476;16.656;2024-02-21T13:55:01;12.50;;;5.70;;
84757;SDS011;74981;52.476;16.656;2024-02-21T14:00:05;12.70;;;5.60;;
84757;SDS011;74981;52.476;16.656;2024-02-21T14:05:09;12.80;;;6.40;;
84757;SDS011;74981;52.476;16.656;2024-02-21T14:10:11;12.40;;;4.90;;
84757;SDS011;74981;52.476;16.656;2024-02-21T14:15:14;10.60;;;5.50;;
84757;SDS011;74981;52.476;16.656;2024-02-21T14:20:17;9.80;;;5.40;;
84757;SDS011;74981;52.476;16.656;2024-02-21T14:25:20;11.80;;;6.00;;
84757;SDS011;74981;52.476;16.656;2024-02-21T14:30:23;9.80;;;4.60;;
84757;SDS011;74981;52.476;16.656;2024-02-21T14:35:25;15.50;;;6.50;;
84757;SDS011;74981;52.476;16.656;2024-02-21T14:40:28;11.80;;;5.30;;
84757;SDS011;74981;52.476;16.656;2024-02-21T14:45:30;9.40;;;5.50;;
84757;SDS011;74981;52.476;16.656;2024-02-21T14:50:33;12.40;;;5.90;;
84757;SDS011;74981;52.476;16.656;2024-02-21T14:55:35;14.70;;;9.00;;
84757;SDS011;74981;52.476;16.656;2024-02-21T15:00:38;15.60;;;6.80;;
84757;SDS011;74981;52.476;16.656;2024-02-21T15:05:40;12.20;;;6.10;;
84757;SDS011;74981;52.476;16.656;2024-02-21T15:10:43;12.00;;;4.10;;
84757;SDS011;74981;52.476;16.656;2024-02-21T15:15:46;8.30;;;4.50;;
84757;SDS011;74981;52.476;16.656;2024-02-21T15:20:49;16.30;;;6.80;;
84757;SDS011;74981;52.476;16.656;2024-02-21T15:25:52;16.50;;;7.70;;
84757;SDS011;74981;52.476;16.656;2024-02-21T15:30:54;13.00;;;6.50;;
84757;SDS011;74981;52.476;16.656;2024-02-21T15:35:57;16.50;;;7.40;;
84757;SDS011;74981;52.476;16.656;2024-02-21T15:40:59;12.60;;;6.20;;
84757;SDS011;74981;52.476;16.656;2024-02-21T15:46:01;14.60;;;7.00;;
84757;SDS011;74981;52.476;16.656;2024-02-21T15:51:04;13.60;;;7.90;;
84757;SDS011;74981;52.476;16.656;2024-02-21T15:56:07;29.50;;;13.30;;
84757;SDS011;74981;52.476;16.656;2024-02-21T16:01:09;24.70;;;10.70;;
84757;SDS011;74981;52.476;16.656;2024-02-21T16:06:12;19.60;;;8.50;;
84757;SDS011;74981;52.476;16.656;2024-02-21T16:11:14;12.20;;;6.50;;
84757;SDS011;74981;52.476;16.656;2024-02-21T16:16:17;15.20;;;7.10;;
84757;SDS011;74981;52.476;16.656;2024-02-21T16:21:20;12.70;;;5.90;;
84757;SDS011;74981;52.476;16.656;2024-02-21T16:26:22;14.00;;;5.70;;
84757;SDS011;74981;52.476;16.656;2024-02-21T16:31:25;16.60;;;7.00;;
84757;SDS011;74981;52.476;16.656;2024-02-21T16:36:27;21.30;;;8.90;;
84757;SDS011;74981;52.476;16.656;2024-02-21T16:41:29;26.10;;;10.00;;
84757;SDS011;74981;52.476;16.656;2024-02-21T16:46:32;24.50;;;10.60;;
84757;SDS011;74981;52.476;16.656;2024-02-21T16:51:34;24.80;;;10.20;;
84757;SDS011;74981;52.476;16.656;2024-02-21T16:56:37;27.70;;;12.70;;
84757;SDS011;74981;52.476;16.656;2024-02-21T17:01:39;22.90;;;11.70;;
84757;SDS011;74981;52.476;16.656;2024-02-21T17:06:41;17.60;;;10.00;;
84757;SDS011;74981;52.476;16.656;2024-02-21T17:11:44;13.90;;;7.60;;
84757;SDS011;74981;52.476;16.656;2024-02-21T17:16:47;13.70;;;9.20;;
84757;SDS011;74981;52.476;16.656;2024-02-21T17:21:49;16.20;;;9.10;;
84757;SDS011;74981;52.476;16.656;2024-02-21T17:26:51;17.60;;;9.00;;
84757;SDS011;74981;52.476;16.656;2024-02-21T17:32:03;15.80;;;8.00;;
84757;SDS011;74981;52.476;16.656;2024-02-21T17:37:06;20.60;;;8.90;;
84757;SDS011;74981;52.476;16.656;2024-02-21T17:42:08;17.80;;;9.40;;
84757;SDS011;74981;52.476;16.656;2024-02-21T17:47:11;19.70;;;8.90;;
84757;SDS011;74981;52.476;16.656;2024-02-21T17:52:13;17.20;;;8.30;;
84757;SDS011;74981;52.476;16.656;2024-02-21T17:57:15;18.40;;;8.00;;
84757;SDS011;74981;52.476;16.656;2024-02-21T18:02:18;18.20;;;8.80;;
84757;SDS011;74981;52.476;16.656;2024-02-21T18:07:21;18.60;;;9.10;;
84757;SDS011;74981;52.476;16.656;2024-02-21T18:12:23;18.40;;;8.60;;
84757;SDS011;74981;52.476;16.656;2024-02-21T18:17:26;17.80;;;8.70;;
84757;SDS011;74981;52.476;16.656;2024-02-21T18:22:28;14.10;;;7.40;;
84757;SDS011;74981;52.476;16.656;2024-02-21T18:27:30;20.40;;;9.80;;
84757;SDS011;74981;52.476;16.656;2024-02-21T18:32:33;18.30;;;9.00;;
84757;SDS011;74981;52.476;16.656;2024-02-21T18:37:35;16.90;;;9.70;;
84757;SDS011;74981;52.476;16.656;2024-02-21T18:42:37;16.00;;;8.70;;
84757;SDS011;74981;52.476;16.656;2024-02-21T18:47:40;15.30;;;8.00;;
84757;SDS011;74981;52.476;16.656;2024-02-21T18:52:43;16.10;;;8.40;;
84757;SDS011;74981;52.476;16.656;2024-02-21T18:57:45;13.00;;;7.50;;
84757;SDS011;74981;52.476;16.656;2024-02-21T19:02:47;14.30;;;7.10;;
84757;SDS011;74981;52.476;16.656;2024-02-21T19:07:50;16.80;;;8.50;;
84757;SDS011;74981;52.476;16.656;2024-02-21T19:12:53;14.00;;;9.20;;
84757;SDS011;74981;52.476;16.656;2024-02-21T19:17:55;17.80;;;8.00;;
84757;SDS011;74981;52.476;16.656;2024-02-21T19:22:57;14.80;;;7.40;;
84757;SDS011;74981;52.476;16.656;2024-02-21T19:28:00;21.20;;;10.10;;
84757;SDS011;74981;52.476;16.656;2024-02-21T19:33:02;20.40;;;10.80;;
84757;SDS011;74981;52.476;16.656;2024-02-21T19:38:05;19.70;;;10.70;;
84757;SDS011;74981;52.476;16.656;2024-02-21T19:43:08;17.90;;;9.60;;
84757;SDS011;74981;52.476;16.656;2024-02-21T19:48:10;17.20;;;10.80;;
84757;SDS011;74981;52.476;16.656;2024-02-21T19:53:13;19.00;;;10.50;;
84757;SDS011;74981;52.476;16.656;2024-02-21T19:58:15;19.00;;;8.50;;
84757;SDS011;74981;52.476;16.656;2024-02-21T20:03:18;12.60;;;7.20;;
84757;SDS011;74981;52.476;16.656;2024-02-21T20:08:20;15.60;;;7.50;;
84757;SDS011;74981;52.476;16.656;2024-02-21T20:13:22;14.40;;;7.60;;
84757;SDS011;74981;52.476;16.656;2024-02-21T20:18:24;12.50;;;6.90;;
84757;SDS011;74981;52.476;16.656;2024-02-21T20:23:27;16.70;;;8.20;;
84757;SDS011;74981;52.476;16.656;2024-02-21T20:28:29;18.20;;;10.90;;
84757;SDS011;74981;52.476;16.656;2024-02-21T20:33:32;17.50;;;11.30;;
84757;SDS011;74981;52.476;16.656;2024-02-21T20:38:35;19.50;;;11.60;;
84757;SDS011;74981;52.476;16.656;2024-02-21T20:43:37;16.20;;;8.80;;
84757;SDS011;74981;52.476;16.656;2024-02-21T20:48:39;19.30;;;10.70;;
84757;SDS011;74981;52.476;16.656;2024-02-21T20:53:42;52.60;;;19.10;;
84757;SDS011;74981;52.476;16.656;2024-02-21T20:58:44;37.50;;;14.90;;
84757;SDS011;74981;52.476;16.656;2024-02-21T21:03:47;31.50;;;12.90;;
84757;SDS011;74981;52.476;16.656;2024-02-21T21:08:50;23.00;;;13.10;;
84757;SDS011;74981;52.476;16.656;2024-02-21T21:13:53;20.40;;;9.40;;
84757;SDS011;74981;52.476;16.656;2024-02-21T21:18:55;25.10;;;12.90;;
84757;SDS011;74981;52.476;16.656;2024-02-21T21:23:57;36.50;;;13.60;;
84757;SDS011;74981;52.476;16.656;2024-02-21T21:29:00;21.80;;;11.00;;
84757;SDS011;74981;52.476;16.656;2024-02-21T21:34:02;28.40;;;11.70;;
84757;SDS011;74981;52.476;16.656;2024-02-21T21:39:04;30.90;;;12.40;;
84757;SDS011;74981;52.476;16.656;2024-02-21T21:44:07;29.10;;;12.00;;
84757;SDS011;74981;52.476;16.656;2024-02-21T21:49:09;29.80;;;12.50;;
84757;SDS011;74981;52.476;16.656;2024-02-21T21:54:11;23.90;;;12.80;;
84757;SDS011;74981;52.476;16.656;2024-02-21T21:59:14;19.20;;;9.20;;
84757;SDS011;74981;52.476;16.656;2024-02-21T22:04:16;26.10;;;12.60;;
84757;SDS011;74981;52.476;16.656;2024-02-21T22:09:19;26.90;;;13.10;;
84757;SDS011;74981;52.476;16.656;2024-02-21T22:14:22;24.90;;;10.50;;
84757;SDS011;74981;52.476;16.656;2024-02-21T22:19:24;19.00;;;8.40;;
84757;SDS011;74981;52.476;16.656;2024-02-21T22:24:26;23.70;;;10.80;;
84757;SDS011;74981;52.476;16.656;2024-02-21T22:29:29;20.30;;;10.20;;
84757;SDS011;74981;52.476;16.656;2024-02-21T22:34:31;23.80;;;10.40;;
84757;SDS011;74981;52.476;16.656;2024-02-21T22:39:34;16.80;;;8.60;;
84757;SDS011;74981;52.476;16.656;2024-02-21T22:44:40;20.00;;;10.30;;
84757;SDS011;74981;52.476;16.656;2024-02-21T22:49:42;21.20;;;9.10;;
84757;SDS011;74981;52.476;16.656;2024-02-21T22:54:45;22.00;;;10.00;;
84757;SDS011;74981;52.476;16.656;2024-02-21T22:59:47;18.80;;;9.40;;
84757;SDS011;74981;52.476;16.656;2024-02-21T23:04:49;22.10;;;10.30;;
84757;SDS011;74981;52.476;16.656;2024-02-21T23:09:52;20.90;;;10.50;;
84757;SDS011;74981;52.476;16.656;2024-02-21T23:14:54;25.70;;;12.40;;
84757;SDS011;74981;52.476;16.656;2024-02-21T23:19:56;19.00;;;9.70;;
84757;SDS011;74981;52.476;16.656;2024-02-21T23:24:59;27.20;;;12.00;;
84757;SDS011;74981;52.476;16.656;2024-02-21T23:30:01;26.20;;;13.40;;
84757;SDS011;74981;52.476;16.656;2024-02-21T23:35:05;23.50;;;12.10;;
84757;SDS011;74981;52.476;16.656;2024-02-21T23:40:09;21.90;;;12.40;;
84757;SDS011;74981;52.476;16.656;2024-02-21T23:45:12;30.80;;;12.60;;
84757;SDS011;74981;52.476;16.656;2024-02-21T23:50:14;23.80;;;11.50;;
84757;SDS011;74981;52.476;16.656;2024-02-21T23:55:17;28.90;;;13.90;;
